createdAt,value
2023-04-13T00:02:18.625Z,81.98
2023-04-13T00:07:22.872Z,81.77
2023-04-13T00:12:26.050Z,81.34
2023-04-13T00:17:27.799Z,81.64
2023-04-13T00:22:29.489Z,82.24
2023-04-13T00:27:31.106Z,82.02
2023-04-13T00:32:34.580Z,81.28
2023-04-13T00:37:36.424Z,82.31
2023-04-13T00:42:38.196Z,81.61
2023-04-13T00:47:41.991Z,80.94
2023-04-13T00:52:44.857Z,80.38
2023-04-13T00:57:50.326Z,80.44
2023-04-13T01:02:53.082Z,81.12
2023-04-13T01:08:18.748Z,81.45
2023-04-13T01:13:30.352Z,81.41
2023-04-13T01:18:38.403Z,82.37
2023-04-13T01:24:06.068Z,81.76
2023-04-13T01:29:08.404Z,80.88
2023-04-13T01:34:10.962Z,81.62
2023-04-13T01:39:22.310Z,81.08
2023-04-13T01:44:35.129Z,82.13
2023-04-13T01:49:37.508Z,81.88
2023-04-13T01:55:00.738Z,82.92
2023-04-13T02:00:10.963Z,83.73
2023-04-13T02:05:14.571Z,83.96
2023-04-13T02:10:16.369Z,84.73
2023-04-13T02:15:20.913Z,85.13
2023-04-13T02:20:23.005Z,84.73
2023-04-13T02:25:28.017Z,84.32
2023-04-13T02:30:29.695Z,82.58
2023-04-13T02:35:31.558Z,82.87
2023-04-13T02:40:33.760Z,83.42
2023-04-13T02:45:35.818Z,81.50
2023-04-13T02:50:38.391Z,79.88
2023-04-13T02:55:44.114Z,79.48
2023-04-13T03:00:48.855Z,79.05
2023-04-13T03:05:54.436Z,79.55
2023-04-13T03:11:01.233Z,77.68
2023-04-13T03:16:04.791Z,78.52
2023-04-13T03:21:07.093Z,77.41
2023-04-13T03:26:19.091Z,75.68
2023-04-13T03:31:22.340Z,75.92
2023-04-13T03:36:27.738Z,75.95
2023-04-13T03:41:29.858Z,74.36
2023-04-13T03:46:33.182Z,72.92
2023-04-13T03:51:43.417Z,74.10
2023-04-13T03:56:45.214Z,74.66
2023-04-13T04:01:47.044Z,74.66
2023-04-13T04:06:48.914Z,74.83
2023-04-13T04:11:52.391Z,76.25
2023-04-13T04:17:02.131Z,76.75
2023-04-13T04:22:04.279Z,78.69
2023-04-13T04:27:14.331Z,78.66
2023-04-13T04:32:19.829Z,79.22
2023-04-13T04:37:21.997Z,79.88
2023-04-13T04:42:37.486Z,81.18
2023-04-13T04:47:43.271Z,82.10
2023-04-13T04:52:51.207Z,81.90
2023-04-13T04:57:56.819Z,81.92
2023-04-13T05:03:01.098Z,83.08
2023-04-13T05:08:03.267Z,83.68
2023-04-13T05:13:05.553Z,83.31
2023-04-13T05:18:07.591Z,77.77
2023-04-13T05:23:09.833Z,74.22
2023-04-13T05:28:18.329Z,70.51
2023-04-13T05:33:22.632Z,69.42
2023-04-13T05:38:29.460Z,69.68
2023-04-13T05:43:31.699Z,69.51
2023-04-13T05:48:34.849Z,69.05
2023-04-13T05:53:40.573Z,67.03
2023-04-13T05:58:42.429Z,65.96
2023-04-13T06:03:57.622Z,66.68
2023-04-13T06:08:59.872Z,66.60
2023-04-13T06:14:03.118Z,66.19
2023-04-13T06:19:05.409Z,66.47
2023-04-13T06:24:08.685Z,65.72
2023-04-13T06:29:12.696Z,64.17
2023-04-13T06:34:21.715Z,64.21
2023-04-13T06:39:24.154Z,63.58
2023-04-13T06:44:33.023Z,64.44
2023-04-13T06:49:35.002Z,66.06
2023-04-13T06:54:38.102Z,65.07
2023-04-13T06:59:48.396Z,64.85
2023-04-13T07:04:50.304Z,64.83
2023-04-13T07:09:53.165Z,62.31
2023-04-13T07:14:55.856Z,62.37
2023-04-13T07:19:59.007Z,62.12
2023-04-13T07:25:01.696Z,61.15
2023-04-13T07:30:04.949Z,61.50
2023-04-13T07:35:12.918Z,61.53
2023-04-13T07:40:17.089Z,62.72
2023-04-13T07:45:23.214Z,61.25
2023-04-13T07:50:26.335Z,61.55
2023-04-13T07:55:28.293Z,61.24
2023-04-13T08:00:31.484Z,58.87
2023-04-13T08:05:36.920Z,58.62
2023-04-13T08:10:38.858Z,57.62
2023-04-13T08:15:42.206Z,57.03
2023-04-13T08:20:44.153Z,55.73
2023-04-13T08:25:45.824Z,56.84
2023-04-13T08:30:50.353Z,55.34
2023-04-13T08:35:52.432Z,53.89
2023-04-13T08:40:54.794Z,55.07
2023-04-13T08:46:05.163Z,53.14
2023-04-13T08:51:09.404Z,53.21
2023-04-13T08:56:14.820Z,54.22
2023-04-13T09:01:17.824Z,54.05
2023-04-13T09:06:28.764Z,53.06
2023-04-13T09:11:31.201Z,52.09
2023-04-13T09:16:43.717Z,53.57
2023-04-13T09:22:15.246Z,51.87
2023-04-13T09:27:21.742Z,50.20
2023-04-13T09:32:25.698Z,51.04
2023-04-13T09:37:30.561Z,50.66
2023-04-13T09:42:32.360Z,50.30
2023-04-13T09:47:39.682Z,51.93
2023-04-13T09:52:41.470Z,50.86
2023-04-13T09:57:43.300Z,50.09
2023-04-13T10:02:45.753Z,51.38
2023-04-13T10:07:48.086Z,50.41
2023-04-13T10:12:53.652Z,49.34
2023-04-13T10:18:25.937Z,49.28
2023-04-13T10:23:29.561Z,49.60
2023-04-13T10:28:45.168Z,47.80
2023-04-13T10:33:50.955Z,45.53
2023-04-13T10:38:52.619Z,46.80
2023-04-13T10:44:02.682Z,44.77
2023-04-13T10:49:05.106Z,45.45
2023-04-13T10:54:08.245Z,42.12
2023-04-13T10:59:10.656Z,43.07
2023-04-13T11:04:15.252Z,44.92
2023-04-13T11:09:22.818Z,43.82
2023-04-13T11:14:24.518Z,44.59
2023-04-13T11:19:26.448Z,40.40
2023-04-13T11:24:33.810Z,40.63
2023-04-13T11:29:35.514Z,39.39
2023-04-13T11:34:37.150Z,41.88
2023-04-13T11:39:40.031Z,40.17
2023-04-13T11:44:45.568Z,43.03
2023-04-13T11:49:48.135Z,43.47
2023-04-13T11:54:51.017Z,44.81
2023-04-13T11:59:53.488Z,42.33
2023-04-13T12:04:57.082Z,42.42
2023-04-13T12:10:03.259Z,39.85
2023-04-13T12:15:22.862Z,41.46
2023-04-13T12:20:44.122Z,40.83
2023-04-13T12:25:58.931Z,42.52
2023-04-13T12:31:03.913Z,41.37
2023-04-13T12:36:07.124Z,41.21
2023-04-13T12:41:10.190Z,43.19
2023-04-13T12:46:11.874Z,42.80
2023-04-13T12:51:13.739Z,43.47
2023-04-13T12:56:16.060Z,42.91
2023-04-13T13:01:18.127Z,40.57
2023-04-13T13:06:19.783Z,42.71
2023-04-13T13:11:21.660Z,43.47
2023-04-13T13:16:23.397Z,44.52
2023-04-13T13:21:25.077Z,42.74
2023-04-13T13:26:30.539Z,43.42
2023-04-13T13:31:41.672Z,44.24
2023-04-13T13:36:43.436Z,45.99
2023-04-13T13:41:45.395Z,45.15
2023-04-13T13:46:47.137Z,44.82
2023-04-13T13:51:49.368Z,43.49
2023-04-13T13:56:53.004Z,44.22
2023-04-13T14:01:54.836Z,43.58
2023-04-13T14:06:57.187Z,42.88
2023-04-13T14:11:59.751Z,44.28
2023-04-13T14:17:01.450Z,44.54
2023-04-13T14:22:03.119Z,44.41
2023-04-13T14:27:05.481Z,45.35
2023-04-13T14:32:07.201Z,43.09
2023-04-13T14:37:10.008Z,44.33
2023-04-13T14:42:14.520Z,44.49
2023-04-13T14:47:16.456Z,43.80
2023-04-13T14:52:18.245Z,44.15
2023-04-13T14:57:20.291Z,44.68
2023-04-13T15:02:22.146Z,45.40
2023-04-13T15:07:29.252Z,42.42
2023-04-13T15:12:31.015Z,44.38
2023-04-13T15:17:32.994Z,44.29
2023-04-13T15:22:36.165Z,44.79
2023-04-13T15:27:38.156Z,44.29
2023-04-13T15:32:40.988Z,43.91
2023-04-13T15:37:42.841Z,45.02
2023-04-13T15:42:44.681Z,45.77
2023-04-13T15:47:46.837Z,46.79
2023-04-13T15:52:48.670Z,46.68
2023-04-13T15:57:53.529Z,45.54
2023-04-13T16:02:56.336Z,45.95
2023-04-13T16:07:58.667Z,44.71
2023-04-13T16:13:02.811Z,44.94
2023-04-13T16:18:04.834Z,44.59
2023-04-13T16:23:07.062Z,45.68
2023-04-13T16:28:09.757Z,47.02
2023-04-13T16:33:11.746Z,45.80
2023-04-13T16:38:13.501Z,45.35
2023-04-13T16:43:16.503Z,47.47
2023-04-13T16:48:18.224Z,47.52
2023-04-13T16:53:19.993Z,48.21
2023-04-13T16:58:21.699Z,48.53
2023-04-13T17:03:23.572Z,48.56
2023-04-13T17:08:25.722Z,48.76
2023-04-13T17:13:27.567Z,48.74
2023-04-13T17:18:29.307Z,48.14
2023-04-13T17:23:31.498Z,48.65
2023-04-13T17:28:33.317Z,48.64
2023-04-13T17:33:35.067Z,49.54
2023-04-13T17:38:36.776Z,49.16
2023-04-13T17:43:40.309Z,49.47
2023-04-13T17:48:42.448Z,50.31
2023-04-13T17:53:44.472Z,50.49
2023-04-13T17:58:46.376Z,51.38
2023-04-13T18:03:48.677Z,50.89
2023-04-13T18:08:50.955Z,50.97
2023-04-13T18:13:52.740Z,51.23
2023-04-13T18:18:54.488Z,53.53
2023-04-13T18:23:56.302Z,55.00
2023-04-13T18:28:58.054Z,55.50
2023-04-13T18:34:00.208Z,57.54
2023-04-13T18:39:03.670Z,55.73
2023-04-13T18:44:05.454Z,55.97
2023-04-13T18:49:07.244Z,57.18
2023-04-13T18:54:08.891Z,57.33
2023-04-13T18:59:10.767Z,57.45
2023-04-13T19:04:12.571Z,58.64
2023-04-13T19:09:14.798Z,59.14
2023-04-13T19:14:16.575Z,59.09
2023-04-13T19:19:18.287Z,58.87
2023-04-13T19:24:20.798Z,59.37
2023-04-13T19:29:23.371Z,60.27
2023-04-13T19:34:25.070Z,60.56
2023-04-13T19:39:27.295Z,61.27
2023-04-13T19:44:29.038Z,61.45
2023-04-13T19:49:30.754Z,61.56
2023-04-13T19:54:32.632Z,62.75
2023-04-13T19:59:34.295Z,63.56
2023-04-13T20:04:37.485Z,63.78
2023-04-13T20:09:39.283Z,64.56
2023-04-13T20:14:42.228Z,65.91
2023-04-13T20:19:44.048Z,66.62
2023-04-13T20:24:45.667Z,66.98
2023-04-13T20:29:47.788Z,67.09
2023-04-13T20:34:49.508Z,67.38
2023-04-13T20:39:51.497Z,68.15
2023-04-13T20:45:00.007Z,69.05
2023-04-13T20:50:02.075Z,68.82
2023-04-13T20:55:03.999Z,69.19
2023-04-13T21:00:10.532Z,69.76
2023-04-13T21:05:12.931Z,69.36
2023-04-13T21:10:17.540Z,66.97
2023-04-13T21:15:19.200Z,68.31
2023-04-13T21:20:21.088Z,70.00
2023-04-13T21:25:23.035Z,70.93
2023-04-13T21:30:24.714Z,70.64
2023-04-13T21:35:26.310Z,70.25
2023-04-13T21:40:27.956Z,69.93
2023-04-13T21:45:29.926Z,68.81
2023-04-13T21:50:31.629Z,66.79
2023-04-13T21:55:33.357Z,67.84
2023-04-13T22:00:34.978Z,65.87
2023-04-13T22:05:36.641Z,67.13
2023-04-13T22:10:38.285Z,67.75
2023-04-13T22:15:40.062Z,68.54
2023-04-13T22:20:41.756Z,68.93
2023-04-13T22:25:51.625Z,69.58
2023-04-13T22:30:53.501Z,69.53
2023-04-13T22:35:55.135Z,69.84
2023-04-13T22:40:57.629Z,69.94
2023-04-13T22:46:02.152Z,69.86
2023-04-13T22:51:04.005Z,70.19
2023-04-13T22:56:05.892Z,69.07
2023-04-13T23:01:07.675Z,69.13
2023-04-13T23:06:09.339Z,70.36
2023-04-13T23:11:11.220Z,71.52
2023-04-13T23:16:13.135Z,72.70
2023-04-13T23:21:14.794Z,72.70
2023-04-13T23:26:16.528Z,72.25
2023-04-13T23:31:18.304Z,72.94
2023-04-13T23:36:20.263Z,72.69
2023-04-13T23:41:22.267Z,72.34
2023-04-13T23:46:24.501Z,72.53
2023-04-13T23:51:26.379Z,72.98
2023-04-13T23:56:28.320Z,73.52
